Time;durP1;ratioP1;P1;durP2;ratioP2;P2;SDS_P1;SDS_P2;PMS_P1;PMS_P2;Temp;Humidity;BMP_temperature;BMP_pressure;BME280_temperature;BME280_humidity;BME280_pressure;Samples;Min_cycle;Max_cycle;Signal;HPM_P1;HPM_P2
2023/09/08 00:01:03;;;;;;;4.97;3.78;;;;;;;26.29;41.86;100888.25;5114954;28;20043;-69
2023/09/08 00:03:32;;;;;;;4.75;3.38;;;;;;;26.26;42.01;100894.94;5114514;28;20040;-69
2023/09/08 00:06:01;;;;;;;6.18;3.72;;;;;;;26.27;41.99;100890.31;5114815;28;20105;-69
2023/09/08 00:08:29;;;;;;;6.22;3.50;;;;;;;26.24;42.34;100892.34;5114746;28;20079;-69
2023/09/08 00:10:58;;;;;;;5.13;3.72;;;;;;;26.24;42.47;100889.63;5114440;28;20209;-69
2023/09/08 00:13:28;;;;;;;5.10;3.40;;;;;;;26.22;42.23;100893.56;5114422;28;20075;-69
2023/09/08 00:15:59;;;;;;;4.90;3.50;;;;;;;26.21;42.02;100890.00;5114408;28;20043;-68
2023/09/08 00:18:28;;;;;;;6.25;3.35;;;;;;;26.19;42.60;100899.41;5114180;28;20089;-68
2023/09/08 00:20:56;;;;;;;4.53;3.08;;;;;;;26.18;42.32;100898.56;5114470;28;20039;-68
2023/09/08 00:23:26;;;;;;;5.32;3.58;;;;;;;26.16;42.04;100900.63;5113952;28;20051;-69
2023/09/08 00:25:55;;;;;;;5.93;3.58;;;;;;;26.16;42.36;100895.16;5113958;28;20139;-69
2023/09/08 00:28:23;;;;;;;5.78;3.70;;;;;;;26.14;42.05;100896.34;5095991;28;20050;-69
2023/09/08 00:30:55;;;;;;;4.75;3.28;;;;;;;26.14;42.46;100901.81;5114058;28;20383;-69
2023/09/08 00:33:23;;;;;;;5.40;3.60;;;;;;;26.12;42.33;100893.78;5114178;28;20523;-69
2023/09/08 00:35:53;;;;;;;6.32;3.95;;;;;;;26.12;42.32;100892.94;5113950;28;20134;-68
2023/09/08 00:38:21;;;;;;;5.50;3.30;;;;;;;26.10;42.41;100893.13;5113951;28;20408;-69
2023/09/08 00:40:51;;;;;;;5.38;3.47;;;;;;;26.09;42.26;100891.44;5113875;28;20085;-68
2023/09/08 00:43:22;;;;;;;5.68;3.67;;;;;;;26.07;42.15;100885.28;5114442;28;20051;-68
2023/09/08 00:45:58;;;;;;;5.13;3.60;;;;;;;26.05;42.12;100883.75;5114088;28;20059;-69
2023/09/08 00:48:27;;;;;;;5.55;3.78;;;;;;;26.05;42.42;100881.00;5113957;28;20134;-69
2023/09/08 00:50:56;;;;;;;4.43;3.25;;;;;;;26.04;42.27;100876.56;5113820;28;20052;-69
2023/09/08 00:53:24;;;;;;;5.53;3.60;;;;;;;26.02;42.73;100870.44;5113613;28;20044;-69
2023/09/08 00:55:55;;;;;;;5.18;3.65;;;;;;;26.02;42.70;100875.91;5113550;28;20444;-69
2023/09/08 00:58:23;;;;;;;5.63;3.60;;;;;;;26.00;42.37;100873.34;5113600;28;20051;-69
2023/09/08 01:00:52;;;;;;;6.13;3.63;;;;;;;25.97;42.19;100871.00;5113533;28;20113;-68
2023/09/08 01:03:22;;;;;;;4.97;3.45;;;;;;;25.96;42.75;100869.25;5113296;28;20553;-69
2023/09/08 01:05:52;;;;;;;5.05;3.40;;;;;;;25.96;42.63;100861.94;5113443;28;20048;-68
2023/09/08 01:08:21;;;;;;;5.35;3.60;;;;;;;25.95;42.48;100864.81;5113204;28;20485;-69
2023/09/08 01:10:49;;;;;;;6.03;3.85;;;;;;;25.93;42.72;100861.41;5113392;28;20377;-69
2023/09/08 01:13:18;;;;;;;5.75;3.63;;;;;;;25.93;42.50;100864.16;5113389;28;20404;-69
2023/09/08 01:15:46;;;;;;;4.75;3.22;;;;;;;25.92;42.71;100865.19;5094849;28;20411;-69
2023/09/08 01:18:17;;;;;;;5.80;3.90;;;;;;;25.90;42.62;100862.63;5113026;28;20476;-69
2023/09/08 01:21:05;;;;;;;5.80;3.60;;;;;;;25.90;42.72;100867.25;5113015;28;20048;-69
2023/09/08 01:24:00;;;;;;;5.47;3.30;;;;;;;25.88;42.68;100861.13;5113162;28;20043;-69
2023/09/08 01:26:37;;;;;;;5.07;3.50;;;;;;;25.86;42.75;100863.16;5112934;28;20100;-68
2023/09/08 01:29:07;;;;;;;6.03;3.80;;;;;;;25.85;42.92;100858.72;5112893;28;20053;-68
2023/09/08 01:31:37;;;;;;;5.72;3.75;;;;;;;25.83;42.70;100861.63;5113033;28;20047;-68
2023/09/08 01:34:06;;;;;;;5.78;3.80;;;;;;;25.82;42.71;100859.94;5113069;28;20066;-68
2023/09/08 01:36:36;;;;;;;5.43;3.53;;;;;;;25.82;42.59;100864.53;5113174;28;20050;-69
2023/09/08 01:39:04;;;;;;;5.25;3.38;;;;;;;25.80;42.62;100853.78;5112859;28;20051;-68
2023/09/08 01:41:34;;;;;;;4.90;3.60;;;;;;;25.78;42.66;100857.75;5112811;28;20055;-68
2023/09/08 01:44:07;;;;;;;5.82;4.03;;;;;;;25.79;42.72;100864.91;5112581;28;20054;-69
2023/09/08 01:46:41;;;;;;;5.50;3.75;;;;;;;25.77;42.46;100856.00;5112778;28;20048;-69
2023/09/08 01:49:10;;;;;;;5.38;3.53;;;;;;;25.76;42.61;100854.31;5112671;28;20054;-69
2023/09/08 01:51:38;;;;;;;5.07;3.42;;;;;;;25.75;42.73;100855.34;5112689;28;20553;-69
2023/09/08 01:54:06;;;;;;;5.68;3.72;;;;;;;25.73;42.76;100850.06;5112696;28;20135;-70
2023/09/08 01:56:35;;;;;;;5.28;3.60;;;;;;;25.71;42.81;100854.84;5112334;28;20052;-70
2023/09/08 01:59:06;;;;;;;5.07;3.47;;;;;;;25.71;42.91;100851.28;5112216;28;20051;-69
2023/09/08 02:01:36;;;;;;;4.72;3.38;;;;;;;25.68;42.78;100858.75;5112461;28;20043;-69
2023/09/08 02:04:06;;;;;;;4.95;3.13;;;;;;;25.68;42.94;100858.75;5112317;28;20126;-69
2023/09/08 02:06:34;;;;;;;5.40;3.65;;;;;;;25.65;42.86;100864.56;5112316;28;20048;-69
2023/09/08 02:09:03;;;;;;;5.30;3.55;;;;;;;25.65;42.76;100861.81;5112212;28;20051;-69
2023/09/08 02:11:31;;;;;;;5.55;3.63;;;;;;;25.64;42.79;100857.38;5112329;28;20051;-69
2023/09/08 02:14:01;;;;;;;5.28;3.55;;;;;;;25.62;42.61;100858.59;5112449;28;20090;-69
2023/09/08 02:16:30;;;;;;;5.32;3.60;;;;;;;25.62;42.94;100866.78;5112138;28;20126;-69
2023/09/08 02:18:58;;;;;;;4.93;3.40;;;;;;;25.60;42.92;100856.06;5112208;28;20040;-69
2023/09/08 02:21:30;;;;;;;5.82;3.60;;;;;;;25.60;42.88;100860.66;5112006;28;20533;-68
2023/09/08 02:23:58;;;;;;;5.38;3.50;;;;;;;25.58;43.09;100846.34;5111938;28;20473;-70
2023/09/08 02:26:27;;;;;;;6.68;3.50;;;;;;;25.57;42.74;100853.66;5111943;28;20059;-69
2023/09/08 02:28:58;;;;;;;6.35;3.85;;;;;;;25.56;43.05;100843.75;5111941;28;20497;-69
2023/09/08 02:31:28;;;;;;;5.38;3.70;;;;;;;25.55;43.08;100852.97;5111965;28;20120;-69
2023/09/08 02:33:57;;;;;;;5.75;3.60;;;;;;;25.52;42.88;100847.03;5111765;28;20055;-69
2023/09/08 02:36:28;;;;;;;5.70;3.42;;;;;;;25.52;42.68;100850.59;5112079;28;20044;-69
2023/09/08 02:38:57;;;;;;;6.60;3.85;;;;;;;25.51;42.93;100857.09;5111859;28;20096;-69
2023/09/08 02:41:25;;;;;;;5.50;3.42;;;;;;;25.49;43.06;100859.16;5111993;28;20056;-69
2023/09/08 02:43:54;;;;;;;5.32;3.58;;;;;;;25.50;42.94;100855.41;5111843;28;20088;-68
2023/09/08 02:46:22;;;;;;;5.32;3.67;;;;;;;25.48;43.10;100846.53;5093470;28;20381;-68
2023/09/08 02:48:52;;;;;;;5.47;3.65;;;;;;;25.48;43.10;100851.13;5115709;28;20051;-68
2023/09/08 02:51:21;;;;;;;5.40;3.70;;;;;;;25.45;43.14;100846.00;5116122;28;20117;-68
2023/09/08 02:53:49;;;;;;;4.72;3.40;;;;;;;25.45;42.98;100852.31;5116134;28;20048;-68
2023/09/08 02:56:18;;;;;;;5.30;3.65;;;;;;;25.45;43.22;100851.47;5115937;28;20058;-68
2023/09/08 02:58:48;;;;;;;5.88;3.60;;;;;;;25.44;43.02;100850.63;5115875;28;20043;-68
2023/09/08 03:01:20;;;;;;;5.25;3.75;;;;;;;25.42;43.16;100852.69;5115572;28;20108;-69
2023/09/08 03:03:49;;;;;;;6.07;3.77;;;;;;;25.41;43.50;100861.91;5115965;28;20044;-69
2023/09/08 03:06:24;;;;;;;5.82;3.40;;;;;;;25.40;43.34;100850.13;5115798;28;20420;-69
2023/09/08 03:08:52;;;;;;;4.97;3.30;;;;;;;25.39;43.03;100853.88;5115670;28;20131;-69
2023/09/08 03:11:23;;;;;;;5.95;3.92;;;;;;;25.38;43.34;100851.31;5115387;28;20082;-69
2023/09/08 03:13:51;;;;;;;5.38;3.42;;;;;;;25.36;43.26;100864.28;5115503;28;20043;-68
2023/09/08 03:16:20;;;;;;;5.35;3.53;;;;;;;25.35;43.13;100857.13;5115919;28;20047;-68
2023/09/08 03:18:51;;;;;;;5.75;3.40;;;;;;;25.35;42.95;100859.84;5115651;28;20039;-68
2023/09/08 03:21:30;;;;;;;5.38;3.40;;;;;;;25.33;43.41;100860.03;5115565;28;20131;-69
2023/09/08 03:23:59;;;;;;;5.05;3.35;;;;;;;25.32;43.42;100861.06;5115389;28;20048;-68
2023/09/08 03:26:27;;;;;;;6.50;3.80;;;;;;;25.31;43.25;100861.25;5115302;28;20055;-68
2023/09/08 03:28:58;;;;;;;5.60;3.45;;;;;;;25.28;43.34;100856.09;5115454;28;20043;-68
2023/09/08 03:31:29;;;;;;;6.50;3.92;;;;;;;25.30;43.19;100865.00;5115444;28;20407;-69
2023/09/08 03:33:58;;;;;;;5.65;3.70;;;;;;;25.27;43.28;100863.44;5115162;28;20104;-68
2023/09/08 03:36:27;;;;;;;5.95;3.80;;;;;;;25.26;43.40;100861.75;5114999;28;20058;-68
2023/09/08 03:38:57;;;;;;;5.10;3.47;;;;;;;25.25;43.50;100857.31;5114873;28;20043;-68
2023/09/08 03:41:26;;;;;;;5.05;3.53;;;;;;;25.24;43.45;100862.94;5115159;28;20134;-68
2023/09/08 03:43:57;;;;;;;5.90;3.50;;;;;;;25.22;43.47;100863.13;5115095;28;20142;-69
2023/09/08 03:46:25;;;;;;;5.88;3.70;;;;;;;25.22;43.37;100873.19;5115061;28;20747;-68
2023/09/08 03:48:58;;;;;;;6.40;3.78;;;;;;;25.21;43.61;100863.31;5114851;28;20107;-69
2023/09/08 03:51:28;;;;;;;5.88;3.45;;;;;;;25.20;43.59;100861.59;5114712;28;20531;-69
2023/09/08 03:53:59;;;;;;;6.00;3.47;;;;;;;25.19;43.37;100859.88;5115116;28;20391;-68
2023/09/08 03:56:28;;;;;;;6.93;3.78;;;;;;;25.18;43.57;100856.28;5114803;28;20120;-69
2023/09/08 03:58:56;;;;;;;6.93;3.75;;;;;;;25.18;43.79;100860.91;5113376;28;20513;-69
2023/09/08 04:01:25;;;;;;;5.13;3.40;;;;;;;25.16;43.72;100857.50;5114561;28;20055;-68
2023/09/08 04:03:53;;;;;;;5.88;3.78;;;;;;;25.14;43.74;100865.00;5114460;28;20480;-69
2023/09/08 04:06:22;;;;;;;6.50;3.80;;;;;;;25.15;43.60;100872.16;5114290;28;20049;-69
2023/09/08 04:08:53;;;;;;;5.60;3.58;;;;;;;25.13;43.63;100868.78;5114607;28;20043;-69
2023/09/08 04:11:22;;;;;;;5.50;3.50;;;;;;;25.13;43.65;100874.22;5114122;28;20052;-68
2023/09/08 04:13:53;;;;;;;5.97;3.85;;;;;;;25.10;43.69;100859.91;5114388;28;20051;-68
2023/09/08 04:16:21;;;;;;;5.22;3.70;;;;;;;25.08;43.65;100864.66;5114192;28;20457;-68
2023/09/08 04:18:49;;;;;;;5.22;3.38;;;;;;;25.07;43.61;100868.41;5114424;28;20127;-68
2023/09/08 04:21:20;;;;;;;5.10;3.60;;;;;;;25.08;43.90;100866.53;5114111;28;20479;-68
2023/09/08 04:23:49;;;;;;;5.60;3.63;;;;;;;25.07;43.62;100875.75;5114332;28;20040;-69
2023/09/08 04:26:18;;;;;;;6.65;3.92;;;;;;;25.05;43.69;100873.19;5114358;28;20048;-69
2023/09/08 04:28:48;;;;;;;5.43;3.72;;;;;;;25.05;43.66;100873.19;5114157;28;20051;-69
2023/09/08 04:31:17;;;;;;;7.28;4.10;;;;;;;25.03;43.74;100868.94;5113869;28;20135;-68
2023/09/08 04:33:48;;;;;;;7.32;3.67;;;;;;;25.03;43.85;100875.25;5113985;28;20542;-69
2023/09/08 04:36:16;;;;;;;6.60;3.70;;;;;;;25.02;43.57;100873.56;5113726;28;20469;-69
2023/09/08 04:38:44;;;;;;;6.28;3.60;;;;;;;25.01;43.92;100881.88;5113866;28;20157;-68
2023/09/08 04:41:13;;;;;;;5.82;3.80;;;;;;;24.99;43.89;100873.84;5113632;28;20457;-69
2023/09/08 04:43:43;;;;;;;6.38;3.80;;;;;;;24.98;43.60;100869.41;5113721;28;20087;-68
2023/09/08 04:46:11;;;;;;;5.30;3.75;;;;;;;24.98;43.84;100879.47;5095338;28;20409;-68
2023/09/08 04:48:39;;;;;;;5.57;3.55;;;;;;;24.99;43.83;100884.75;5113862;28;20051;-69
2023/09/08 04:51:10;;;;;;;5.85;4.28;;;;;;;24.96;44.00;100876.06;5113538;28;20135;-69
2023/09/08 04:53:38;;;;;;;5.18;3.75;;;;;;;24.95;44.00;100877.94;5113683;28;20074;-69
2023/09/08 04:56:06;;;;;;;5.72;3.90;;;;;;;24.96;43.64;100878.78;5112804;28;20412;-71
2023/09/08 04:58:37;;;;;;;6.15;3.75;;;;;;;24.94;44.06;100876.25;5113158;28;20481;-68
2023/09/08 05:01:07;;;;;;;6.07;4.05;;;;;;;24.93;43.88;100877.28;5113487;28;20047;-68
2023/09/08 05:03:35;;;;;;;5.20;3.60;;;;;;;24.94;43.72;100886.31;5113493;28;20501;-69
2023/09/08 05:06:04;;;;;;;5.55;3.80;;;;;;;24.93;44.01;100885.44;5113238;28;20047;-69
2023/09/08 05:08:33;;;;;;;5.95;4.00;;;;;;;24.93;43.78;100885.44;5113528;28;20484;-69
2023/09/08 05:11:02;;;;;;;6.13;4.32;;;;;;;24.92;43.97;100885.63;5112518;28;20048;-69
2023/09/08 05:13:30;;;;;;;7.28;4.30;;;;;;;24.89;44.05;100878.63;5113369;28;20082;-69
2023/09/08 05:16:10;;;;;;;6.35;3.97;;;;;;;24.89;43.92;100881.34;5113212;28;20040;-68
2023/09/08 05:18:42;;;;;;;6.90;4.05;;;;;;;24.90;43.89;100884.91;5112998;28;20055;-69
2023/09/08 05:21:11;;;;;;;7.30;4.05;;;;;;;24.89;43.99;100894.13;5112541;28;20533;-68
2023/09/08 05:23:39;;;;;;;5.93;3.95;;;;;;;24.87;43.93;100886.13;5112943;28;20044;-69
2023/09/08 05:26:10;;;;;;;6.13;3.88;;;;;;;24.88;44.23;100898.75;5112895;28;20562;-69
2023/09/08 05:28:39;;;;;;;6.20;4.03;;;;;;;24.87;44.00;100897.03;5113037;28;20047;-69
2023/09/08 05:31:07;;;;;;;7.05;4.15;;;;;;;24.87;44.24;100897.03;5112138;28;20519;-69
2023/09/08 05:33:36;;;;;;;7.85;4.53;;;;;;;24.85;43.94;100893.63;5112491;28;20039;-69
2023/09/08 05:36:06;;;;;;;6.38;4.00;;;;;;;24.87;43.98;100902.50;5112146;28;20177;-69
2023/09/08 05:38:35;;;;;;;6.22;3.78;;;;;;;24.86;44.24;100900.78;5112580;28;20382;-69
2023/09/08 05:41:04;;;;;;;5.70;3.83;;;;;;;24.86;44.10;100906.25;5112200;28;20354;-69
2023/09/08 05:43:32;;;;;;;6.10;4.00;;;;;;;24.85;44.15;100901.81;5112429;28;20048;-69
2023/09/08 05:46:04;;;;;;;7.10;4.10;;;;;;;24.83;43.89;100896.53;5111942;28;20055;-69
2023/09/08 05:48:36;;;;;;;7.05;3.90;;;;;;;24.83;44.30;100899.25;5112108;28;20073;-69
2023/09/08 05:51:09;;;;;;;6.28;3.90;;;;;;;24.83;44.25;100901.13;5112483;28;20051;-68
2023/09/08 05:53:40;;;;;;;8.57;4.10;;;;;;;24.82;44.20;100899.44;5112547;28;20043;-69
2023/09/08 05:56:12;;;;;;;6.78;4.00;;;;;;;24.83;44.23;100901.13;5112023;28;20043;-69
2023/09/08 05:58:44;;;;;;;5.95;4.10;;;;;;;24.82;44.17;100893.97;5112103;28;20050;-69
2023/09/08 06:01:12;;;;;;;7.63;4.50;;;;;;;24.81;44.21;100892.28;5111728;28;20044;-69
2023/09/08 06:03:41;;;;;;;7.88;4.40;;;;;;;24.82;44.11;100902.16;5112310;28;20043;-68
2023/09/08 06:06:14;;;;;;;6.25;3.85;;;;;;;24.81;44.30;100900.47;5112232;28;20121;-69
2023/09/08 06:08:42;;;;;;;6.60;3.85;;;;;;;24.81;44.50;100897.72;5111901;28;20489;-69
2023/09/08 06:11:12;;;;;;;6.45;4.15;;;;;;;24.81;44.35;100904.03;5111928;28;20081;-69
2023/09/08 06:13:40;;;;;;;5.43;3.55;;;;;;;24.80;44.42;100901.47;5111815;28;20177;-69
2023/09/08 06:16:08;;;;;;;6.35;4.05;;;;;;;24.79;44.47;100903.34;5111462;28;20217;-68
2023/09/08 06:18:39;;;;;;;7.20;3.70;;;;;;;24.80;44.54;100901.47;5112161;28;20408;-68
2023/09/08 06:21:08;;;;;;;5.85;3.75;;;;;;;24.78;44.16;100912.53;5111488;28;20404;-69
2023/09/08 06:23:44;;;;;;;5.95;4.07;;;;;;;24.79;44.39;100911.50;5111470;28;20051;-68
2023/09/08 06:26:13;;;;;;;7.07;3.95;;;;;;;24.79;44.38;100905.22;5111628;28;20040;-69
2023/09/08 06:28:44;;;;;;;5.47;3.50;;;;;;;24.80;44.39;100917.81;5111809;28;20050;-69
2023/09/08 06:31:14;;;;;;;6.28;3.70;;;;;;;24.79;44.60;100916.13;5111617;28;20135;-68
2023/09/08 06:33:42;;;;;;;6.28;3.72;;;;;;;24.79;44.59;100916.97;5111894;28;20047;-69
2023/09/08 06:36:13;;;;;;;7.15;4.13;;;;;;;24.79;44.65;100922.44;5110987;28;20066;-69
2023/09/08 06:38:43;;;;;;;6.00;3.83;;;;;;;24.79;44.61;100914.25;5111334;28;20125;-69
2023/09/08 06:41:12;;;;;;;6.25;4.07;;;;;;;24.79;44.62;100910.66;5111455;28;20079;-69
2023/09/08 06:43:40;;;;;;;5.43;3.70;;;;;;;24.78;44.81;100914.41;5111202;28;20044;-69
2023/09/08 06:46:11;;;;;;;6.03;3.80;;;;;;;24.78;44.71;100908.97;5111545;28;20085;-68
2023/09/08 06:48:40;;;;;;;6.57;4.07;;;;;;;24.79;44.55;100905.22;5111356;28;20074;-68
2023/09/08 06:51:08;;;;;;;6.15;4.07;;;;;;;24.77;44.95;100908.13;5111242;28;20047;-68
2023/09/08 06:53:37;;;;;;;5.25;3.80;;;;;;;24.77;44.80;100912.72;5111705;28;20048;-69
2023/09/08 06:56:06;;;;;;;5.78;3.95;;;;;;;24.79;44.93;100906.06;5111145;28;20058;-68
2023/09/08 06:58:37;;;;;;;4.65;3.50;;;;;;;24.78;44.72;100907.09;5111716;28;20056;-69
2023/09/08 07:01:06;;;;;;;6.38;4.20;;;;;;;24.79;44.88;100906.06;5111316;28;20050;-69
2023/09/08 07:03:36;;;;;;;4.95;3.60;;;;;;;24.79;44.93;100902.47;5111234;28;20051;-68
2023/09/08 07:06:06;;;;;;;6.05;3.60;;;;;;;24.79;45.09;100903.34;5111394;28;20089;-68
2023/09/08 07:08:36;;;;;;;4.72;3.50;;;;;;;24.80;45.06;100906.91;5110864;28;20475;-68
2023/09/08 07:11:05;;;;;;;5.22;3.78;;;;;;;24.78;44.95;100903.50;5111194;28;20448;-68
2023/09/08 07:13:35;;;;;;;6.18;4.05;;;;;;;24.79;45.07;100905.22;5111358;28;20051;-69
2023/09/08 07:16:05;;;;;;;5.80;3.90;;;;;;;24.79;44.79;100899.75;5111480;28;20488;-70
2023/09/08 07:18:35;;;;;;;6.22;3.97;;;;;;;24.80;44.90;100898.72;5111179;28;20044;-68
2023/09/08 07:21:04;;;;;;;5.75;3.60;;;;;;;24.79;44.75;100894.28;5111448;28;20055;-69
2023/09/08 07:23:35;;;;;;;5.88;3.75;;;;;;;24.80;44.79;100896.88;5111051;28;20059;-68
2023/09/08 07:26:03;;;;;;;5.72;3.80;;;;;;;24.80;45.06;100894.16;5111156;28;20047;-67
2023/09/08 07:28:38;;;;;;;5.75;3.60;;;;;;;24.80;45.05;100888.69;5111008;28;20393;-68
2023/09/08 07:31:12;;;;;;;6.57;3.72;;;;;;;24.80;45.01;100879.63;5111186;28;20054;-68
2023/09/08 07:33:40;;;;;;;5.43;3.63;;;;;;;24.80;44.96;100879.63;5113264;28;20050;-68
2023/09/08 07:36:13;;;;;;;5.65;3.95;;;;;;;24.81;44.94;100882.22;5097181;28;20132;-68
2023/09/08 07:38:46;;;;;;;;;;;;;;;24.81;44.93;100875.91;5115479;28;20211;-68
2023/09/08 07:41:15;;;;;;;6.50;3.88;;;;;;;24.81;44.96;100870.44;5115129;28;19920;-68
2023/09/08 07:43:45;;;;;;;5.72;3.97;;;;;;;24.81;44.96;100870.44;5115069;28;20063;-69
2023/09/08 07:46:14;;;;;;;6.97;4.32;;;;;;;24.82;45.21;100866.69;5115004;28;20048;-68
2023/09/08 07:48:42;;;;;;;5.70;3.78;;;;;;;24.82;45.18;100872.16;5114780;28;20083;-69
2023/09/08 07:51:14;;;;;;;5.80;3.83;;;;;;;24.83;45.23;100873.84;5114849;28;20044;-68
2023/09/08 07:53:43;;;;;;;6.00;3.70;;;;;;;24.82;45.13;100872.16;5114789;28;20087;-68
2023/09/08 07:56:11;;;;;;;5.88;4.10;;;;;;;24.83;45.19;100873.84;5114508;28;20382;-70
2023/09/08 07:58:40;;;;;;;5.95;3.60;;;;;;;24.84;45.20;100875.56;5114889;28;20047;-69
2023/09/08 08:01:10;;;;;;;5.30;3.67;;;;;;;24.84;45.17;100870.09;5114818;28;20550;-68
2023/09/08 08:03:41;;;;;;;6.03;3.65;;;;;;;24.84;45.24;100875.56;5114567;28;20047;-68
2023/09/08 08:06:10;;;;;;;4.85;3.40;;;;;;;24.84;45.01;100875.56;5114484;28;20048;-69
2023/09/08 08:08:39;;;;;;;5.35;3.35;;;;;;;24.85;45.27;100869.06;5114359;28;20488;-68
2023/09/08 08:11:27;;;;;;;5.32;3.70;;;;;;;24.87;45.05;100882.53;5098730;28;20087;-68
2023/09/08 08:14:16;;;;;;;5.30;3.70;;;;;;;24.87;45.23;100875.22;5099277;28;20065;-68
2023/09/08 08:17:05;;;;;;;5.05;3.50;;;;;;;24.88;45.17;100870.59;5099026;28;20044;-68
2023/09/08 08:19:49;;;;;;;6.75;3.88;;;;;;;24.88;45.15;100874.19;5114414;28;20079;-68
2023/09/08 08:22:18;;;;;;;5.25;3.42;;;;;;;24.88;45.50;100874.19;5114147;28;20114;-68
2023/09/08 08:24:46;;;;;;;5.13;3.70;;;;;;;24.87;45.37;100872.47;5113977;28;20485;-68
2023/09/08 08:27:22;;;;;;;6.07;3.88;;;;;;;24.89;45.51;100859.50;5114008;28;20137;-68
2023/09/08 08:29:53;;;;;;;5.97;3.90;;;;;;;24.90;45.47;100866.72;5114194;28;20086;-69
2023/09/08 08:32:22;;;;;;;5.78;3.75;;;;;;;24.92;45.39;100872.84;5113522;28;20549;-69
2023/09/08 08:34:51;;;;;;;5.28;3.60;;;;;;;24.93;45.50;100869.09;5113811;28;20116;-69
2023/09/08 08:37:19;;;;;;;4.82;3.40;;;;;;;24.91;45.68;100857.50;5113628;28;20048;-69
2023/09/08 08:39:47;;;;;;;5.47;3.90;;;;;;;24.93;45.35;100852.72;5113434;28;20536;-68
2023/09/08 08:42:16;;;;;;;6.03;3.53;;;;;;;24.94;45.38;100851.69;5113491;28;20048;-68
2023/09/08 08:44:45;;;;;;;5.35;3.33;;;;;;;24.92;45.29;100845.56;5113027;28;20410;-68
2023/09/08 08:47:15;;;;;;;5.18;3.70;;;;;;;24.95;45.62;100850.66;5113836;28;20048;-68
2023/09/08 08:49:47;;;;;;;4.70;3.13;;;;;;;24.96;45.59;100844.16;5113539;28;20134;-68
2023/09/08 08:52:18;;;;;;;6.30;3.92;;;;;;;24.98;45.32;100844.84;5113597;28;20087;-68
2023/09/08 08:54:47;;;;;;;6.38;3.53;;;;;;;24.99;45.54;100848.44;5113331;28;20290;-67
2023/09/08 08:57:16;;;;;;;5.20;3.60;;;;;;;24.99;45.49;100852.00;5113569;28;20131;-68
2023/09/08 08:59:46;;;;;;;5.40;3.42;;;;;;;25.00;45.50;100847.44;5113651;28;20111;-68
2023/09/08 09:02:16;;;;;;;5.53;3.65;;;;;;;25.00;45.63;100844.69;5113247;28;20048;-68
2023/09/08 09:04:46;;;;;;;5.22;3.42;;;;;;;25.03;45.67;100850.69;5113152;28;20135;-68
2023/09/08 09:07:15;;;;;;;6.60;3.88;;;;;;;25.04;45.70;100848.81;5113067;28;20101;-68
2023/09/08 09:09:43;;;;;;;7.65;3.78;;;;;;;25.05;45.54;100845.91;5113337;28;20039;-68
2023/09/08 09:12:12;;;;;;;5.53;3.60;;;;;;;25.05;45.51;100835.00;5113076;28;20087;-67
2023/09/08 09:14:46;;;;;;;5.90;3.88;;;;;;;25.04;45.43;100840.63;5113433;28;20054;-69
2023/09/08 09:17:17;;;;;;;5.97;3.78;;;;;;;25.07;45.55;100832.94;5112919;28;20500;-67
2023/09/08 09:19:47;;;;;;;5.65;3.85;;;;;;;25.09;45.75;100836.38;5112491;28;20083;-67
2023/09/08 09:22:15;;;;;;;5.43;3.90;;;;;;;25.09;45.75;100830.91;5113181;28;20408;-68
2023/09/08 09:24:44;;;;;;;6.28;3.85;;;;;;;25.10;45.65;100835.34;5113030;28;20439;-67
2023/09/08 09:27:13;;;;;;;5.40;3.65;;;;;;;25.13;45.62;100825.09;5094691;28;20039;-68
2023/09/08 09:29:47;;;;;;;4.75;3.15;;;;;;;25.14;45.48;100829.53;5113082;28;20051;-69
2023/09/08 09:32:17;;;;;;;5.57;3.42;;;;;;;25.15;45.61;100831.22;5112836;28;20043;-69
2023/09/08 09:34:52;;;;;;;6.18;3.45;;;;;;;25.17;45.79;100834.63;5112675;28;20384;-68
2023/09/08 09:37:22;;;;;;;5.85;3.70;;;;;;;25.19;45.71;100835.31;5112760;28;20043;-68
2023/09/08 09:39:51;;;;;;;4.60;3.17;;;;;;;25.20;45.60;100837.03;5112594;28;20044;-68
2023/09/08 09:42:20;;;;;;;5.32;3.38;;;;;;;25.22;45.53;100840.44;5112590;28;20051;-69
2023/09/08 09:44:51;;;;;;;5.05;3.28;;;;;;;25.23;45.63;100836.69;5112360;28;20052;-68
2023/09/08 09:47:20;;;;;;;4.30;3.22;;;;;;;25.24;45.71;100831.03;5095037;28;20067;-69
2023/09/08 09:49:50;;;;;;;5.63;3.40;;;;;;;25.27;46.04;100833.41;5112736;28;20446;-69
2023/09/08 09:52:23;;;;;;;6.00;3.78;;;;;;;25.26;45.80;100822.66;5112480;28;20195;-68
2023/09/08 09:54:56;;;;;;;6.18;3.72;;;;;;;25.31;45.68;100818.41;5094018;28;20044;-69
2023/09/08 09:57:26;;;;;;;5.03;3.33;;;;;;;25.34;45.85;100825.38;5112132;28;20453;-69
2023/09/08 09:59:55;;;;;;;5.00;3.20;;;;;;;25.33;45.60;100815.50;5112510;28;20555;-69
2023/09/08 10:02:26;;;;;;;5.18;3.55;;;;;;;25.38;45.91;100824.00;5112190;28;20409;-68
2023/09/08 10:04:56;;;;;;;5.93;3.83;;;;;;;25.39;45.65;100825.72;5112217;28;20151;-68
2023/09/08 10:07:26;;;;;;;5.63;3.17;;;;;;;25.42;45.75;100822.66;5112202;28;20519;-69
2023/09/08 10:09:55;;;;;;;5.28;3.35;;;;;;;25.44;45.78;100828.78;5112319;28;20043;-68
2023/09/08 10:12:25;;;;;;;4.70;3.30;;;;;;;25.47;45.84;100822.94;5111795;28;20408;-68
2023/09/08 10:14:57;;;;;;;5.15;3.67;;;;;;;25.50;45.93;100827.25;5112152;28;20044;-68
2023/09/08 10:17:31;;;;;;;5.80;3.60;;;;;;;25.52;45.73;100826.03;5111938;28;20138;-69
2023/09/08 10:20:08;;;;;;;4.55;3.20;;;;;;;25.55;45.98;100817.47;5093998;28;20055;-69
2023/09/08 10:22:39;;;;;;;5.20;3.50;;;;;;;25.58;45.91;100814.41;5111819;28;20052;-69
2023/09/08 10:25:09;;;;;;;5.80;3.47;;;;;;;25.60;45.74;100812.34;5111876;28;20043;-68
2023/09/08 10:27:39;;;;;;;5.80;3.83;;;;;;;25.65;46.18;100811.81;5093698;28;20134;-69
2023/09/08 10:30:09;;;;;;;5.82;3.70;;;;;;;25.68;45.78;100809.59;5093618;28;20092;-68
2023/09/08 10:32:41;;;;;;;5.20;3.28;;;;;;;25.69;45.71;100800.34;5111505;28;20067;-69
2023/09/08 10:35:11;;;;;;;4.72;3.47;;;;;;;25.75;45.96;100803.44;5111627;28;20134;-69
2023/09/08 10:37:40;;;;;;;5.68;3.25;;;;;;;25.76;45.93;100802.41;5111720;28;20143;-69
2023/09/08 10:40:26;;;;;;;4.57;3.05;;;;;;;25.82;45.71;100799.81;5111779;28;20536;-68
2023/09/08 10:43:07;;;;;;;5.13;3.55;;;;;;;25.86;46.22;100794.84;5111680;28;20167;-68
2023/09/08 10:45:36;;;;;;;5.28;3.78;;;;;;;25.89;45.71;100795.34;5111289;28;20104;-69
2023/09/08 10:48:06;;;;;;;4.22;3.08;;;;;;;25.93;45.95;100795.81;5111236;28;20052;-69
2023/09/08 10:50:41;;;;;;;5.68;3.50;;;;;;;25.98;45.94;100798.91;5111507;28;20424;-69
2023/09/08 10:53:14;;;;;;;5.05;3.33;;;;;;;26.02;45.97;100797.50;5111202;28;20048;-69
2023/09/08 10:55:47;;;;;;;4.45;3.30;;;;;;;26.06;45.89;100793.38;5111377;28;20051;-69
2023/09/08 10:58:38;;;;;;;4.93;3.42;;;;;;;26.09;45.66;100790.28;5111278;28;20044;-68
2023/09/08 11:01:07;;;;;;;5.05;3.40;;;;;;;26.11;45.70;100785.47;5111357;28;20150;-67
2023/09/08 11:03:47;;;;;;;5.38;3.20;;;;;;;26.20;46.01;100786.28;5111074;28;20058;-68
2023/09/08 11:06:19;;;;;;;5.03;3.50;;;;;;;26.23;45.71;100786.75;5111146;28;20388;-68
2023/09/08 11:08:48;;;;;;;4.97;3.40;;;;;;;26.28;45.51;100778.03;5113465;28;20051;-69
2023/09/08 11:11:18;;;;;;;4.57;3.08;;;;;;;26.33;45.92;100778.31;5114995;28;20393;-69
2023/09/08 11:13:49;;;;;;;5.30;3.33;;;;;;;26.38;45.82;100777.81;5115287;28;20052;-68
2023/09/08 11:16:22;;;;;;;5.63;3.40;;;;;;;26.41;45.94;100777.44;5115596;28;20051;-68
2023/09/08 11:18:52;;;;;;;4.70;3.58;;;;;;;26.45;45.76;100776.91;5114883;28;20155;-69
2023/09/08 11:21:22;;;;;;;5.05;3.30;;;;;;;26.50;45.58;100777.19;5115035;28;20040;-68
2023/09/08 11:23:50;;;;;;;5.10;3.33;;;;;;;26.56;45.69;100763.84;5114685;28;20046;-69
2023/09/08 11:26:18;;;;;;;5.07;3.20;;;;;;;26.62;45.33;100774.88;5115206;28;20420;-68
2023/09/08 11:28:49;;;;;;;5.03;3.33;;;;;;;26.67;45.40;100766.97;5115048;28;20055;-68
2023/09/08 11:31:17;;;;;;;5.93;3.65;;;;;;;26.71;45.36;100768.28;5115222;28;20420;-68
2023/09/08 11:33:54;;;;;;;5.03;3.00;;;;;;;26.76;45.51;100765.03;5097107;28;20051;-68
2023/09/08 11:36:25;;;;;;;4.63;3.15;;;;;;;26.80;45.53;100761.72;5114993;28;20461;-69
2023/09/08 11:38:54;;;;;;;4.93;3.25;;;;;;;26.87;45.39;100766.47;5096456;28;20048;-68